sensor_id;sensor_type;location;lat;lon;timestamp;temperature;humidity
14755;DHT22;7469;50.906;6.952;2022-08-21T00:01:50;17.80;99.90
14755;DHT22;7469;50.906;6.952;2022-08-21T00:04:20;17.70;99.90
14755;DHT22;7469;50.906;6.952;2022-08-21T00:06:55;17.70;99.90
14755;DHT22;7469;50.906;6.952;2022-08-21T00:09:23;17.70;99.90
14755;DHT22;7469;50.906;6.952;2022-08-21T00:11:51;17.70;99.90
14755;DHT22;7469;50.906;6.952;2022-08-21T00:14:19;17.60;99.90
14755;DHT22;7469;50.906;6.952;2022-08-21T00:16:47;17.60;99.90
14755;DHT22;7469;50.906;6.952;2022-08-21T00:19:15;17.60;99.90
14755;DHT22;7469;50.906;6.952;2022-08-21T00:21:45;17.50;99.90
14755;DHT22;7469;50.906;6.952;2022-08-21T00:24:13;17.50;99.90
14755;DHT22;7469;50.906;6.952;2022-08-21T00:26:41;17.40;99.90
14755;DHT22;7469;50.906;6.952;2022-08-21T00:29:10;17.40;99.90
14755;DHT22;7469;50.906;6.952;2022-08-21T00:31:38;17.30;99.90
14755;DHT22;7469;50.906;6.952;2022-08-21T00:34:07;17.30;99.90
14755;DHT22;7469;50.906;6.952;2022-08-21T00:36:35;17.20;99.90
14755;DHT22;7469;50.906;6.952;2022-08-21T00:39:06;17.20;99.90
14755;DHT22;7469;50.906;6.952;2022-08-21T00:41:36;17.10;99.90
14755;DHT22;7469;50.906;6.952;2022-08-21T00:44:06;17.10;99.90
14755;DHT22;7469;50.906;6.952;2022-08-21T00:46:34;17.10;99.90
14755;DHT22;7469;50.906;6.952;2022-08-21T00:49:03;17.00;99.90
14755;DHT22;7469;50.906;6.952;2022-08-21T00:51:37;17.00;99.90
14755;DHT22;7469;50.906;6.952;2022-08-21T00:54:07;17.00;99.90
14755;DHT22;7469;50.906;6.952;2022-08-21T00:56:45;17.00;99.90
14755;DHT22;7469;50.906;6.952;2022-08-21T00:59:15;16.90;99.90
14755;DHT22;7469;50.906;6.952;2022-08-21T01:01:43;16.90;99.90
14755;DHT22;7469;50.906;6.952;2022-08-21T01:04:12;16.80;99.90
14755;DHT22;7469;50.906;6.952;2022-08-21T01:06:40;16.80;99.90
14755;DHT22;7469;50.906;6.952;2022-08-21T01:09:09;16.80;99.90
14755;DHT22;7469;50.906;6.952;2022-08-21T01:11:38;16.70;99.90
14755;DHT22;7469;50.906;6.952;2022-08-21T01:14:06;16.70;99.90
14755;DHT22;7469;50.906;6.952;2022-08-21T01:16:34;16.70;99.90
14755;DHT22;7469;50.906;6.952;2022-08-21T01:19:02;16.70;99.90
14755;DHT22;7469;50.906;6.952;2022-08-21T01:21:31;16.70;99.90
14755;DHT22;7469;50.906;6.952;2022-08-21T01:24:00;16.70;99.90
14755;DHT22;7469;50.906;6.952;2022-08-21T01:26:32;16.60;99.90
14755;DHT22;7469;50.906;6.952;2022-08-21T01:29:06;16.60;99.90
14755;DHT22;7469;50.906;6.952;2022-08-21T01:31:36;16.50;99.90
14755;DHT22;7469;50.906;6.952;2022-08-21T01:34:05;16.50;99.90
14755;DHT22;7469;50.906;6.952;2022-08-21T01:36:34;16.40;99.90
14755;DHT22;7469;50.906;6.952;2022-08-21T01:39:04;16.30;99.90
14755;DHT22;7469;50.906;6.952;2022-08-21T01:41:32;16.30;99.90
14755;DHT22;7469;50.906;6.952;2022-08-21T01:44:00;16.20;99.90
14755;DHT22;7469;50.906;6.952;2022-08-21T01:46:28;16.20;99.90
14755;DHT22;7469;50.906;6.952;2022-08-21T01:48:56;16.20;99.90
14755;DHT22;7469;50.906;6.952;2022-08-21T01:51:25;16.20;99.90
14755;DHT22;7469;50.906;6.952;2022-08-21T01:53:54;16.20;99.90
14755;DHT22;7469;50.906;6.952;2022-08-21T01:56:23;16.10;99.90
14755;DHT22;7469;50.906;6.952;2022-08-21T01:58:52;16.10;99.90
14755;DHT22;7469;50.906;6.952;2022-08-21T02:01:22;16.10;99.90
14755;DHT22;7469;50.906;6.952;2022-08-21T02:03:51;16.10;99.90
14755;DHT22;7469;50.906;6.952;2022-08-21T02:06:19;16.10;99.90
14755;DHT22;7469;50.906;6.952;2022-08-21T02:08:47;16.10;99.90
14755;DHT22;7469;50.906;6.952;2022-08-21T02:11:18;16.10;99.90
14755;DHT22;7469;50.906;6.952;2022-08-21T02:13:46;16.00;99.90
14755;DHT22;7469;50.906;6.952;2022-08-21T02:16:14;16.00;99.90
14755;DHT22;7469;50.906;6.952;2022-08-21T02:18:45;16.00;99.90
14755;DHT22;7469;50.906;6.952;2022-08-21T02:21:13;16.00;99.90
14755;DHT22;7469;50.906;6.952;2022-08-21T02:23:42;16.00;99.90
14755;DHT22;7469;50.906;6.952;2022-08-21T02:26:10;16.00;99.90
14755;DHT22;7469;50.906;6.952;2022-08-21T02:28:40;15.90;99.90
14755;DHT22;7469;50.906;6.952;2022-08-21T02:31:09;15.90;99.90
14755;DHT22;7469;50.906;6.952;2022-08-21T02:33:37;15.90;99.90
14755;DHT22;7469;50.906;6.952;2022-08-21T02:36:07;15.80;99.90
14755;DHT22;7469;50.906;6.952;2022-08-21T02:38:37;15.80;99.90
14755;DHT22;7469;50.906;6.952;2022-08-21T02:41:08;15.80;99.90
14755;DHT22;7469;50.906;6.952;2022-08-21T02:43:37;15.80;99.90
14755;DHT22;7469;50.906;6.952;2022-08-21T02:46:07;15.70;99.90
14755;DHT22;7469;50.906;6.952;2022-08-21T02:48:36;15.70;99.90
14755;DHT22;7469;50.906;6.952;2022-08-21T02:51:07;15.70;99.90
14755;DHT22;7469;50.906;6.952;2022-08-21T02:53:35;15.70;99.90
14755;DHT22;7469;50.906;6.952;2022-08-21T02:56:06;15.70;99.90
14755;DHT22;7469;50.906;6.952;2022-08-21T02:58:37;15.60;99.90
14755;DHT22;7469;50.906;6.952;2022-08-21T03:01:08;15.60;99.90
14755;DHT22;7469;50.906;6.952;2022-08-21T03:03:37;15.60;99.90
14755;DHT22;7469;50.906;6.952;2022-08-21T03:06:06;15.60;99.90
14755;DHT22;7469;50.906;6.952;2022-08-21T03:08:35;15.60;99.90
14755;DHT22;7469;50.906;6.952;2022-08-21T03:11:05;15.50;99.90
14755;DHT22;7469;50.906;6.952;2022-08-21T03:13:35;15.50;99.90
14755;DHT22;7469;50.906;6.952;2022-08-21T03:16:04;15.50;99.90
14755;DHT22;7469;50.906;6.952;2022-08-21T03:18:37;15.50;99.90
14755;DHT22;7469;50.906;6.952;2022-08-21T03:21:06;15.50;99.90
14755;DHT22;7469;50.906;6.952;2022-08-21T03:23:34;15.40;99.90
14755;DHT22;7469;50.906;6.952;2022-08-21T03:26:03;15.40;99.90
14755;DHT22;7469;50.906;6.952;2022-08-21T03:28:33;15.30;99.90
14755;DHT22;7469;50.906;6.952;2022-08-21T03:31:01;15.30;99.90
14755;DHT22;7469;50.906;6.952;2022-08-21T03:33:29;15.30;99.90
14755;DHT22;7469;50.906;6.952;2022-08-21T03:36:02;15.20;99.90
14755;DHT22;7469;50.906;6.952;2022-08-21T03:38:32;15.20;99.90
14755;DHT22;7469;50.906;6.952;2022-08-21T03:41:02;15.20;99.90
14755;DHT22;7469;50.906;6.952;2022-08-21T03:43:31;15.20;99.90
14755;DHT22;7469;50.906;6.952;2022-08-21T03:46:00;15.10;99.90
14755;DHT22;7469;50.906;6.952;2022-08-21T03:48:30;15.10;99.90
14755;DHT22;7469;50.906;6.952;2022-08-21T03:51:00;15.10;99.90
14755;DHT22;7469;50.906;6.952;2022-08-21T03:53:28;15.00;99.90
14755;DHT22;7469;50.906;6.952;2022-08-21T03:55:57;15.00;99.90
14755;DHT22;7469;50.906;6.952;2022-08-21T03:58:27;15.00;99.90
14755;DHT22;7469;50.906;6.952;2022-08-21T04:00:57;15.00;99.90
14755;DHT22;7469;50.906;6.952;2022-08-21T04:03:26;14.90;99.90
14755;DHT22;7469;50.906;6.952;2022-08-21T04:05:54;14.90;99.90
14755;DHT22;7469;50.906;6.952;2022-08-21T04:08:23;14.90;99.90
14755;DHT22;7469;50.906;6.952;2022-08-21T04:10:54;14.90;99.90
14755;DHT22;7469;50.906;6.952;2022-08-21T04:13:23;14.80;99.90
14755;DHT22;7469;50.906;6.952;2022-08-21T04:15:51;14.80;99.90
14755;DHT22;7469;50.906;6.952;2022-08-21T04:18:19;14.80;99.90
14755;DHT22;7469;50.906;6.952;2022-08-21T04:20:50;14.70;99.90
14755;DHT22;7469;50.906;6.952;2022-08-21T04:23:19;14.70;99.90
14755;DHT22;7469;50.906;6.952;2022-08-21T04:25:53;14.70;99.90
14755;DHT22;7469;50.906;6.952;2022-08-21T04:28:23;14.70;99.90
14755;DHT22;7469;50.906;6.952;2022-08-21T04:30:56;14.70;99.90
14755;DHT22;7469;50.906;6.952;2022-08-21T04:33:24;14.60;99.90
14755;DHT22;7469;50.906;6.952;2022-08-21T04:35:52;14.70;99.90
14755;DHT22;7469;50.906;6.952;2022-08-21T04:38:20;14.60;99.90
14755;DHT22;7469;50.906;6.952;2022-08-21T04:40:51;14.60;99.90
14755;DHT22;7469;50.906;6.952;2022-08-21T04:43:20;14.60;99.90
14755;DHT22;7469;50.906;6.952;2022-08-21T04:45:51;14.60;99.90
14755;DHT22;7469;50.906;6.952;2022-08-21T04:48:22;14.60;99.90
14755;DHT22;7469;50.906;6.952;2022-08-21T04:50:54;14.60;99.90
14755;DHT22;7469;50.906;6.952;2022-08-21T04:53:27;14.60;99.90
14755;DHT22;7469;50.906;6.952;2022-08-21T04:56:02;14.60;99.90
14755;DHT22;7469;50.906;6.952;2022-08-21T04:58:32;14.60;99.90
14755;DHT22;7469;50.906;6.952;2022-08-21T05:01:02;14.60;99.90
14755;DHT22;7469;50.906;6.952;2022-08-21T05:03:33;14.70;99.90
14755;DHT22;7469;50.906;6.952;2022-08-21T05:06:03;14.60;99.90
14755;DHT22;7469;50.906;6.952;2022-08-21T05:08:33;14.70;99.90
14755;DHT22;7469;50.906;6.952;2022-08-21T05:11:04;14.70;99.90
14755;DHT22;7469;50.906;6.952;2022-08-21T05:13:32;14.80;99.90
14755;DHT22;7469;50.906;6.952;2022-08-21T05:16:00;14.80;99.90
14755;DHT22;7469;50.906;6.952;2022-08-21T05:18:28;14.80;99.90
14755;DHT22;7469;50.906;6.952;2022-08-21T05:20:56;14.90;99.90
14755;DHT22;7469;50.906;6.952;2022-08-21T05:23:24;14.80;99.90
14755;DHT22;7469;50.906;6.952;2022-08-21T05:25:52;14.90;99.90
14755;DHT22;7469;50.906;6.952;2022-08-21T05:28:23;15.00;99.90
14755;DHT22;7469;50.906;6.952;2022-08-21T05:30:52;15.00;99.90
14755;DHT22;7469;50.906;6.952;2022-08-21T05:33:20;15.00;99.90
14755;DHT22;7469;50.906;6.952;2022-08-21T05:35:49;15.10;99.90
14755;DHT22;7469;50.906;6.952;2022-08-21T05:38:17;15.10;99.90
14755;DHT22;7469;50.906;6.952;2022-08-21T05:40:46;15.20;99.90
14755;DHT22;7469;50.906;6.952;2022-08-21T05:43:14;15.20;99.90
14755;DHT22;7469;50.906;6.952;2022-08-21T05:45:43;15.30;99.90
14755;DHT22;7469;50.906;6.952;2022-08-21T05:48:14;15.40;99.90
14755;DHT22;7469;50.906;6.952;2022-08-21T05:50:43;15.40;99.90
14755;DHT22;7469;50.906;6.952;2022-08-21T05:53:11;15.50;99.90
14755;DHT22;7469;50.906;6.952;2022-08-21T05:55:41;15.60;99.90
14755;DHT22;7469;50.906;6.952;2022-08-21T05:58:13;15.70;99.90
14755;DHT22;7469;50.906;6.952;2022-08-21T06:00:43;15.80;99.90
14755;DHT22;7469;50.906;6.952;2022-08-21T06:03:13;15.90;99.90
14755;DHT22;7469;50.906;6.952;2022-08-21T06:05:42;15.90;99.90
14755;DHT22;7469;50.906;6.952;2022-08-21T06:08:10;16.00;99.90
14755;DHT22;7469;50.906;6.952;2022-08-21T06:10:38;16.10;99.90
14755;DHT22;7469;50.906;6.952;2022-08-21T06:13:06;16.20;99.90
14755;DHT22;7469;50.906;6.952;2022-08-21T06:15:35;16.20;99.90
14755;DHT22;7469;50.906;6.952;2022-08-21T06:18:04;16.30;99.90
14755;DHT22;7469;50.906;6.952;2022-08-21T06:20:32;16.30;99.90
14755;DHT22;7469;50.906;6.952;2022-08-21T06:23:00;16.40;99.90
14755;DHT22;7469;50.906;6.952;2022-08-21T06:25:30;16.50;99.90
14755;DHT22;7469;50.906;6.952;2022-08-21T06:28:02;16.50;99.90
14755;DHT22;7469;50.906;6.952;2022-08-21T06:30:31;16.60;99.90
14755;DHT22;7469;50.906;6.952;2022-08-21T06:32:59;16.70;99.90
14755;DHT22;7469;50.906;6.952;2022-08-21T06:35:28;16.80;99.90
14755;DHT22;7469;50.906;6.952;2022-08-21T06:37:57;16.90;99.90
14755;DHT22;7469;50.906;6.952;2022-08-21T06:40:26;17.00;99.90
14755;DHT22;7469;50.906;6.952;2022-08-21T06:42:55;17.00;99.90
14755;DHT22;7469;50.906;6.952;2022-08-21T06:45:24;17.10;99.90
14755;DHT22;7469;50.906;6.952;2022-08-21T06:47:58;17.20;99.90
14755;DHT22;7469;50.906;6.952;2022-08-21T06:50:27;17.30;99.90
14755;DHT22;7469;50.906;6.952;2022-08-21T06:53:02;17.40;99.90
14755;DHT22;7469;50.906;6.952;2022-08-21T06:55:30;17.50;99.90
14755;DHT22;7469;50.906;6.952;2022-08-21T06:57:58;17.60;99.90
14755;DHT22;7469;50.906;6.952;2022-08-21T07:00:27;17.70;99.90
14755;DHT22;7469;50.906;6.952;2022-08-21T07:02:55;17.80;99.90
14755;DHT22;7469;50.906;6.952;2022-08-21T07:05:25;17.90;99.90
14755;DHT22;7469;50.906;6.952;2022-08-21T07:07:55;18.00;99.90
14755;DHT22;7469;50.906;6.952;2022-08-21T07:10:23;18.10;99.90
14755;DHT22;7469;50.906;6.952;2022-08-21T07:12:52;18.10;99.90
14755;DHT22;7469;50.906;6.952;2022-08-21T07:15:28;18.20;99.90
14755;DHT22;7469;50.906;6.952;2022-08-21T07:17:56;18.40;99.90
14755;DHT22;7469;50.906;6.952;2022-08-21T07:20:25;18.50;99.90
14755;DHT22;7469;50.906;6.952;2022-08-21T07:22:54;18.70;99.90
14755;DHT22;7469;50.906;6.952;2022-08-21T07:25:23;18.80;99.90
14755;DHT22;7469;50.906;6.952;2022-08-21T07:27:51;18.90;99.90
14755;DHT22;7469;50.906;6.952;2022-08-21T07:30:19;19.00;99.90
14755;DHT22;7469;50.906;6.952;2022-08-21T07:32:47;19.20;99.90
14755;DHT22;7469;50.906;6.952;2022-08-21T07:35:17;19.40;99.90
14755;DHT22;7469;50.906;6.952;2022-08-21T07:37:45;19.50;99.90
14755;DHT22;7469;50.906;6.952;2022-08-21T07:40:15;19.60;99.90
14755;DHT22;7469;50.906;6.952;2022-08-21T07:42:46;19.70;99.90
14755;DHT22;7469;50.906;6.952;2022-08-21T07:45:18;19.80;99.90
14755;DHT22;7469;50.906;6.952;2022-08-21T07:47:46;19.90;99.90
14755;DHT22;7469;50.906;6.952;2022-08-21T07:50:17;20.10;99.90
14755;DHT22;7469;50.906;6.952;2022-08-21T07:52:45;20.20;99.90
14755;DHT22;7469;50.906;6.952;2022-08-21T07:55:18;20.30;99.90
14755;DHT22;7469;50.906;6.952;2022-08-21T07:57:47;20.50;99.90
14755;DHT22;7469;50.906;6.952;2022-08-21T08:00:17;20.60;99.90
14755;DHT22;7469;50.906;6.952;2022-08-21T08:02:48;20.70;99.90
14755;DHT22;7469;50.906;6.952;2022-08-21T08:05:19;20.80;99.90
14755;DHT22;7469;50.906;6.952;2022-08-21T08:07:47;21.00;99.90
14755;DHT22;7469;50.906;6.952;2022-08-21T08:10:17;21.10;99.90
14755;DHT22;7469;50.906;6.952;2022-08-21T08:12:46;21.20;99.90
14755;DHT22;7469;50.906;6.952;2022-08-21T08:15:18;21.40;99.90
14755;DHT22;7469;50.906;6.952;2022-08-21T08:17:47;21.60;99.90
14755;DHT22;7469;50.906;6.952;2022-08-21T08:20:16;21.70;99.90
14755;DHT22;7469;50.906;6.952;2022-08-21T08:22:45;21.80;99.90
14755;DHT22;7469;50.906;6.952;2022-08-21T08:25:18;21.90;99.90
14755;DHT22;7469;50.906;6.952;2022-08-21T08:27:47;22.00;99.90
14755;DHT22;7469;50.906;6.952;2022-08-21T08:30:17;22.00;99.90
14755;DHT22;7469;50.906;6.952;2022-08-21T08:32:46;22.10;99.90
14755;DHT22;7469;50.906;6.952;2022-08-21T08:35:16;22.20;99.90
14755;DHT22;7469;50.906;6.952;2022-08-21T08:37:49;22.30;99.90
14755;DHT22;7469;50.906;6.952;2022-08-21T08:40:24;22.40;99.90
14755;DHT22;7469;50.906;6.952;2022-08-21T08:42:55;22.50;99.90
14755;DHT22;7469;50.906;6.952;2022-08-21T08:45:24;22.60;99.90
14755;DHT22;7469;50.906;6.952;2022-08-21T08:47:57;22.70;99.90
14755;DHT22;7469;50.906;6.952;2022-08-21T08:50:41;22.80;99.90
14755;DHT22;7469;50.906;6.952;2022-08-21T08:53:16;23.00;99.90
14755;DHT22;7469;50.906;6.952;2022-08-21T08:55:46;23.20;99.90
14755;DHT22;7469;50.906;6.952;2022-08-21T08:58:18;23.30;99.70
14755;DHT22;7469;50.906;6.952;2022-08-21T09:00:49;23.50;99.10
14755;DHT22;7469;50.906;6.952;2022-08-21T09:03:18;23.70;98.40
14755;DHT22;7469;50.906;6.952;2022-08-21T09:05:52;23.90;98.00
14755;DHT22;7469;50.906;6.952;2022-08-21T09:08:42;24.00;97.70
14755;DHT22;7469;50.906;6.952;2022-08-21T09:11:25;24.20;97.10
14755;DHT22;7469;50.906;6.952;2022-08-21T09:14:01;24.30;96.20
14755;DHT22;7469;50.906;6.952;2022-08-21T09:16:40;24.50;95.50
14755;DHT22;7469;50.906;6.952;2022-08-21T09:19:19;24.70;95.00
14755;DHT22;7469;50.906;6.952;2022-08-21T09:21:59;25.40;94.20
14755;DHT22;7469;50.906;6.952;2022-08-21T09:24:33;26.30;92.50
14755;DHT22;7469;50.906;6.952;2022-08-21T09:27:08;27.40;90.40
14755;DHT22;7469;50.906;6.952;2022-08-21T09:29:38;28.40;84.40
14755;DHT22;7469;50.906;6.952;2022-08-21T09:32:11;29.40;76.60
14755;DHT22;7469;50.906;6.952;2022-08-21T09:34:58;30.60;67.10
14755;DHT22;7469;50.906;6.952;2022-08-21T09:37:29;32.50;55.00
14755;DHT22;7469;50.906;6.952;2022-08-21T09:39:58;35.00;44.00
14755;DHT22;7469;50.906;6.952;2022-08-21T09:42:30;37.10;35.80
14755;DHT22;7469;50.906;6.952;2022-08-21T09:45:09;39.40;29.50
14755;DHT22;7469;50.906;6.952;2022-08-21T09:47:38;41.30;25.30
14755;DHT22;7469;50.906;6.952;2022-08-21T09:50:12;42.40;21.60
14755;DHT22;7469;50.906;6.952;2022-08-21T09:52:50;43.40;19.40
14755;DHT22;7469;50.906;6.952;2022-08-21T09:55:24;44.60;17.40
14755;DHT22;7469;50.906;6.952;2022-08-21T09:58:13;45.30;15.50
14755;DHT22;7469;50.906;6.952;2022-08-21T10:00:42;45.90;14.20
14755;DHT22;7469;50.906;6.952;2022-08-21T10:03:14;45.40;12.90
14755;DHT22;7469;50.906;6.952;2022-08-21T10:05:52;44.80;13.10
14755;DHT22;7469;50.906;6.952;2022-08-21T10:08:21;45.50;12.70
14755;DHT22;7469;50.906;6.952;2022-08-21T10:10:54;46.20;12.30
14755;DHT22;7469;50.906;6.952;2022-08-21T10:13:32;47.20;11.60
14755;DHT22;7469;50.906;6.952;2022-08-21T10:16:12;47.70;10.70
14755;DHT22;7469;50.906;6.952;2022-08-21T10:18:52;47.80;9.90
14755;DHT22;7469;50.906;6.952;2022-08-21T10:21:26;47.70;10.00
14755;DHT22;7469;50.906;6.952;2022-08-21T10:24:01;48.00;9.80
14755;DHT22;7469;50.906;6.952;2022-08-21T10:26:43;48.30;9.20
14755;DHT22;7469;50.906;6.952;2022-08-21T10:29:28;48.80;8.90
14755;DHT22;7469;50.906;6.952;2022-08-21T10:32:03;48.70;7.70
14755;DHT22;7469;50.906;6.952;2022-08-21T10:34:56;48.90;8.30
14755;DHT22;7469;50.906;6.952;2022-08-21T10:37:39;48.90;7.80
14755;DHT22;7469;50.906;6.952;2022-08-21T10:40:15;47.90;7.80
14755;DHT22;7469;50.906;6.952;2022-08-21T10:42:56;47.10;8.50
14755;DHT22;7469;50.906;6.952;2022-08-21T10:45:39;47.00;8.80
14755;DHT22;7469;50.906;6.952;2022-08-21T10:51:05;46.70;8.80
14755;DHT22;7469;50.906;6.952;2022-08-21T10:53:47;45.40;9.00
14755;DHT22;7469;50.906;6.952;2022-08-21T10:56:22;44.60;9.50
14755;DHT22;7469;50.906;6.952;2022-08-21T10:59:02;44.60;9.60
14755;DHT22;7469;50.906;6.952;2022-08-21T11:01:40;44.70;9.60
14755;DHT22;7469;50.906;6.952;2022-08-21T11:04:12;44.90;9.60
14755;DHT22;7469;50.906;6.952;2022-08-21T11:06:47;45.00;9.60
14755;DHT22;7469;50.906;6.952;2022-08-21T11:09:19;44.70;9.60
14755;DHT22;7469;50.906;6.952;2022-08-21T11:11:50;44.40;9.70
14755;DHT22;7469;50.906;6.952;2022-08-21T11:14:44;43.90;9.40
14755;DHT22;7469;50.906;6.952;2022-08-21T11:17:20;43.50;9.80
14755;DHT22;7469;50.906;6.952;2022-08-21T11:19:54;43.50;10.20
14755;DHT22;7469;50.906;6.952;2022-08-21T11:22:33;43.20;10.10
14755;DHT22;7469;50.906;6.952;2022-08-21T11:25:09;42.40;10.40
14755;DHT22;7469;50.906;6.952;2022-08-21T11:27:42;41.50;11.00
14755;DHT22;7469;50.906;6.952;2022-08-21T11:30:12;40.40;11.70
14755;DHT22;7469;50.906;6.952;2022-08-21T11:32:55;39.20;12.50
14755;DHT22;7469;50.906;6.952;2022-08-21T11:35:33;38.40;13.40
14755;DHT22;7469;50.906;6.952;2022-08-21T11:38:16;37.20;14.00
14755;DHT22;7469;50.906;6.952;2022-08-21T11:40:56;36.60;15.00
14755;DHT22;7469;50.906;6.952;2022-08-21T11:43:36;35.90;15.70
14755;DHT22;7469;50.906;6.952;2022-08-21T11:46:18;35.30;16.10
14755;DHT22;7469;50.906;6.952;2022-08-21T11:49:08;34.30;16.60
14755;DHT22;7469;50.906;6.952;2022-08-21T11:51:42;33.60;17.20
14755;DHT22;7469;50.906;6.952;2022-08-21T11:54:20;33.10;17.80
14755;DHT22;7469;50.906;6.952;2022-08-21T11:56:53;32.70;18.00
14755;DHT22;7469;50.906;6.952;2022-08-21T11:59:31;32.30;18.70
14755;DHT22;7469;50.906;6.952;2022-08-21T12:02:10;31.90;19.20
14755;DHT22;7469;50.906;6.952;2022-08-21T12:04:45;31.40;20.00
14755;DHT22;7469;50.906;6.952;2022-08-21T12:07:17;31.10;20.80
14755;DHT22;7469;50.906;6.952;2022-08-21T12:09:53;30.70;21.10
14755;DHT22;7469;50.906;6.952;2022-08-21T12:12:25;30.50;21.40
14755;DHT22;7469;50.906;6.952;2022-08-21T12:15:07;30.30;21.90
14755;DHT22;7469;50.906;6.952;2022-08-21T12:17:51;30.00;22.20
14755;DHT22;7469;50.906;6.952;2022-08-21T12:20:40;29.90;22.80
14755;DHT22;7469;50.906;6.952;2022-08-21T12:23:28;29.80;22.90
14755;DHT22;7469;50.906;6.952;2022-08-21T12:26:11;29.60;22.90
14755;DHT22;7469;50.906;6.952;2022-08-21T12:28:41;29.30;23.10
14755;DHT22;7469;50.906;6.952;2022-08-21T12:31:22;29.20;23.10
14755;DHT22;7469;50.906;6.952;2022-08-21T12:33:54;29.00;23.50
14755;DHT22;7469;50.906;6.952;2022-08-21T12:36:37;28.80;23.90
14755;DHT22;7469;50.906;6.952;2022-08-21T12:39:12;28.80;24.10
14755;DHT22;7469;50.906;6.952;2022-08-21T12:41:48;29.00;23.90
14755;DHT22;7469;50.906;6.952;2022-08-21T12:44:22;29.00;23.70
14755;DHT22;7469;50.906;6.952;2022-08-21T12:46:54;29.00;23.70
14755;DHT22;7469;50.906;6.952;2022-08-21T12:49:27;28.90;23.90
14755;DHT22;7469;50.906;6.952;2022-08-21T12:52:06;28.90;24.30
14755;DHT22;7469;50.906;6.952;2022-08-21T12:54:40;28.80;24.30
14755;DHT22;7469;50.906;6.952;2022-08-21T12:57:17;29.00;24.20
14755;DHT22;7469;50.906;6.952;2022-08-21T12:59:46;29.10;24.00
14755;DHT22;7469;50.906;6.952;2022-08-21T13:02:22;29.30;23.90
14755;DHT22;7469;50.906;6.952;2022-08-21T13:04:52;29.50;23.80
14755;DHT22;7469;50.906;6.952;2022-08-21T13:07:27;29.60;24.10
14755;DHT22;7469;50.906;6.952;2022-08-21T13:09:58;29.70;23.90
14755;DHT22;7469;50.906;6.952;2022-08-21T13:12:28;29.90;23.70
14755;DHT22;7469;50.906;6.952;2022-08-21T13:15:02;30.00;23.50
14755;DHT22;7469;50.906;6.952;2022-08-21T13:17:36;30.20;23.10
14755;DHT22;7469;50.906;6.952;2022-08-21T13:20:09;30.30;22.90
14755;DHT22;7469;50.906;6.952;2022-08-21T13:22:42;30.30;22.80
14755;DHT22;7469;50.906;6.952;2022-08-21T13:25:13;30.40;22.90
14755;DHT22;7469;50.906;6.952;2022-08-21T13:27:42;30.30;23.20
14755;DHT22;7469;50.906;6.952;2022-08-21T13:30:13;30.40;23.40
14755;DHT22;7469;50.906;6.952;2022-08-21T13:32:45;30.50;23.00
14755;DHT22;7469;50.906;6.952;2022-08-21T13:35:17;30.60;22.80
14755;DHT22;7469;50.906;6.952;2022-08-21T13:37:49;30.80;22.60
14755;DHT22;7469;50.906;6.952;2022-08-21T13:40:44;31.00;22.30
14755;DHT22;7469;50.906;6.952;2022-08-21T13:43:15;31.30;22.30
14755;DHT22;7469;50.906;6.952;2022-08-21T13:45:50;31.40;22.20
14755;DHT22;7469;50.906;6.952;2022-08-21T13:48:18;31.30;22.60
14755;DHT22;7469;50.906;6.952;2022-08-21T13:50:47;31.30;22.60
14755;DHT22;7469;50.906;6.952;2022-08-21T13:53:28;31.20;22.60
14755;DHT22;7469;50.906;6.952;2022-08-21T13:55:57;31.30;22.60
14755;DHT22;7469;50.906;6.952;2022-08-21T13:58:28;31.30;22.50
14755;DHT22;7469;50.906;6.952;2022-08-21T14:00:58;31.30;22.40
14755;DHT22;7469;50.906;6.952;2022-08-21T14:03:33;31.10;22.50
14755;DHT22;7469;50.906;6.952;2022-08-21T14:06:03;31.20;22.70
14755;DHT22;7469;50.906;6.952;2022-08-21T14:08:40;31.20;22.40
14755;DHT22;7469;50.906;6.952;2022-08-21T14:11:11;31.00;22.50
14755;DHT22;7469;50.906;6.952;2022-08-21T14:13:42;30.90;22.60
14755;DHT22;7469;50.906;6.952;2022-08-21T14:16:17;30.80;22.70
14755;DHT22;7469;50.906;6.952;2022-08-21T14:18:49;30.80;22.90
14755;DHT22;7469;50.906;6.952;2022-08-21T14:21:30;30.70;23.10
14755;DHT22;7469;50.906;6.952;2022-08-21T14:24:02;30.50;23.20
14755;DHT22;7469;50.906;6.952;2022-08-21T14:26:34;30.30;23.50
14755;DHT22;7469;50.906;6.952;2022-08-21T14:29:07;30.10;23.70
14755;DHT22;7469;50.906;6.952;2022-08-21T14:31:36;29.80;24.00
14755;DHT22;7469;50.906;6.952;2022-08-21T14:34:11;29.60;24.10
14755;DHT22;7469;50.906;6.952;2022-08-21T14:36:46;29.40;24.40
14755;DHT22;7469;50.906;6.952;2022-08-21T14:39:16;29.30;24.70
14755;DHT22;7469;50.906;6.952;2022-08-21T14:41:44;29.00;24.60
14755;DHT22;7469;50.906;6.952;2022-08-21T14:44:16;28.80;24.80
14755;DHT22;7469;50.906;6.952;2022-08-21T14:46:45;28.60;25.10
14755;DHT22;7469;50.906;6.952;2022-08-21T14:49:24;28.50;25.30
14755;DHT22;7469;50.906;6.952;2022-08-21T14:51:55;28.40;25.50
14755;DHT22;7469;50.906;6.952;2022-08-21T14:54:27;28.30;25.40
14755;DHT22;7469;50.906;6.952;2022-08-21T14:56:59;28.20;26.00
14755;DHT22;7469;50.906;6.952;2022-08-21T14:59:29;28.20;25.80
14755;DHT22;7469;50.906;6.952;2022-08-21T15:01:59;28.10;25.80
14755;DHT22;7469;50.906;6.952;2022-08-21T15:04:27;28.10;25.70
14755;DHT22;7469;50.906;6.952;2022-08-21T15:06:55;28.00;25.70
14755;DHT22;7469;50.906;6.952;2022-08-21T15:09:23;28.00;25.90
14755;DHT22;7469;50.906;6.952;2022-08-21T15:11:53;27.90;25.80
14755;DHT22;7469;50.906;6.952;2022-08-21T15:14:26;27.90;25.80
14755;DHT22;7469;50.906;6.952;2022-08-21T15:16:55;27.90;25.70
14755;DHT22;7469;50.906;6.952;2022-08-21T15:19:23;27.90;25.80
14755;DHT22;7469;50.906;6.952;2022-08-21T15:21:53;27.90;26.00
14755;DHT22;7469;50.906;6.952;2022-08-21T15:24:22;27.80;26.00
14755;DHT22;7469;50.906;6.952;2022-08-21T15:26:50;27.80;26.00
14755;DHT22;7469;50.906;6.952;2022-08-21T15:29:20;27.80;26.10
14755;DHT22;7469;50.906;6.952;2022-08-21T15:31:53;27.80;26.10
14755;DHT22;7469;50.906;6.952;2022-08-21T15:34:21;27.70;26.20
14755;DHT22;7469;50.906;6.952;2022-08-21T15:36:54;27.70;26.30
14755;DHT22;7469;50.906;6.952;2022-08-21T15:39:24;27.70;26.50
14755;DHT22;7469;50.906;6.952;2022-08-21T15:41:57;27.60;26.50
14755;DHT22;7469;50.906;6.952;2022-08-21T15:44:29;27.60;26.50
14755;DHT22;7469;50.906;6.952;2022-08-21T15:46:59;27.60;26.60
14755;DHT22;7469;50.906;6.952;2022-08-21T15:49:27;27.60;26.50
14755;DHT22;7469;50.906;6.952;2022-08-21T15:51:55;27.70;26.50
14755;DHT22;7469;50.906;6.952;2022-08-21T15:54:23;27.80;26.40
14755;DHT22;7469;50.906;6.952;2022-08-21T15:56:51;27.80;26.40
14755;DHT22;7469;50.906;6.952;2022-08-21T15:59:21;27.70;26.40
14755;DHT22;7469;50.906;6.952;2022-08-21T16:01:51;27.70;26.50
14755;DHT22;7469;50.906;6.952;2022-08-21T16:04:23;27.70;26.40
14755;DHT22;7469;50.906;6.952;2022-08-21T16:06:52;27.70;26.40
14755;DHT22;7469;50.906;6.952;2022-08-21T16:09:29;27.70;26.60
14755;DHT22;7469;50.906;6.952;2022-08-21T16:12:00;27.70;26.50
14755;DHT22;7469;50.906;6.952;2022-08-21T16:14:29;27.80;26.40
14755;DHT22;7469;50.906;6.952;2022-08-21T16:16:59;27.80;26.40
14755;DHT22;7469;50.906;6.952;2022-08-21T16:19:28;27.80;26.40